Time;durP1;ratioP1;P1;durP2;ratioP2;P2;SDS_P1;SDS_P2;PMS_P1;PMS_P2;Temp;Humidity;BMP_temperature;BMP_pressure;BME280_temperature;BME280_humidity;BME280_pressure;Samples;Min_cycle;Max_cycle;Signal;HPM_P1;HPM_P2
2021/05/02 00:00:41;;;;;;;11.27;8.57;;;;;;;5.78;69.46;100147.81;5053441;28;20053;-71
2021/05/02 00:03:07;;;;;;;11.25;8.75;;;;;;;5.67;69.93;100150.91;5053154;28;20064;-71
2021/05/02 00:05:35;;;;;;;11.55;8.48;;;;;;;5.59;70.18;100134.50;5037976;28;20045;-72
2021/05/02 00:08:03;;;;;;;12.32;8.68;;;;;;;5.68;69.73;100144.69;5037406;28;20050;-71
2021/05/02 00:10:32;;;;;;;12.02;8.75;;;;;;;5.68;70.19;100151.78;5053080;28;20497;-71
2021/05/02 00:13:00;;;;;;;15.98;9.70;;;;;;;5.49;70.29;100133.16;5036344;28;20492;-71
2021/05/02 00:15:27;;;;;;;14.43;9.40;;;;;;;5.50;70.96;100150.75;5053290;28;20071;-71
2021/05/02 00:17:55;;;;;;;11.73;9.30;;;;;;;5.38;71.13;100150.31;5037523;28;20065;-72
2021/05/02 00:20:24;;;;;;;11.45;9.40;;;;;;;5.28;71.58;100157.75;5036631;28;20061;-69
2021/05/02 00:22:55;;;;;;;12.55;9.18;;;;;;;5.35;71.43;100158.38;5036865;28;20049;-70
2021/05/02 00:25:25;;;;;;;13.00;8.95;;;;;;;5.22;71.89;100154.50;5052878;28;20172;-70
2021/05/02 00:27:52;;;;;;;13.85;9.48;;;;;;;5.19;72.43;100157.25;5021050;28;20426;-71
2021/05/02 00:30:21;;;;;;;11.43;9.20;;;;;;;5.13;72.43;100155.72;5041068;28;20505;-70
2021/05/02 00:32:51;;;;;;;13.25;10.07;;;;;;;5.02;72.42;100138.44;5040451;28;20045;-70
2021/05/02 00:35:19;;;;;;;11.45;9.82;;;;;;;5.14;72.71;100163.56;5038872;28;20346;-71
2021/05/02 00:37:46;;;;;;;16.42;9.98;;;;;;;5.14;73.25;100173.31;5035888;28;20049;-71
2021/05/02 00:40:15;;;;;;;14.93;9.73;;;;;;;5.10;73.05;100169.03;5037280;28;20053;-70
2021/05/02 00:42:50;;;;;;;13.93;10.35;;;;;;;5.11;73.50;100163.69;5037004;28;20049;-70
2021/05/02 00:45:41;;;;;;;12.95;10.70;;;;;;;5.07;73.96;100167.38;5036822;28;20057;-71
2021/05/02 00:48:20;;;;;;;14.43;10.35;;;;;;;5.08;73.62;100170.88;5035969;28;20050;-72
2021/05/02 00:50:56;;;;;;;15.52;10.73;;;;;;;5.08;73.87;100162.94;5035617;28;20055;-71
2021/05/02 00:53:31;;;;;;;16.02;11.10;;;;;;;5.05;74.17;100173.66;5036461;28;20050;-70
2021/05/02 00:55:58;;;;;;;12.73;10.98;;;;;;;5.06;74.28;100163.00;5035557;28;20057;-70
2021/05/02 00:58:39;;;;;;;14.88;11.10;;;;;;;5.18;74.21;100169.63;5035247;28;20060;-70
2021/05/02 01:01:08;;;;;;;13.32;11.18;;;;;;;5.24;73.99;100163.22;5035727;28;20046;-71
2021/05/02 01:03:39;;;;;;;14.98;11.52;;;;;;;5.19;74.03;100160.75;5036248;28;20452;-71
2021/05/02 01:06:08;;;;;;;16.60;12.70;;;;;;;5.21;74.84;100166.84;5036476;28;20049;-71
2021/05/02 01:08:36;;;;;;;15.88;12.07;;;;;;;5.18;74.87;100164.34;5036317;28;20053;-71
2021/05/02 01:11:04;;;;;;;16.05;12.45;;;;;;;5.27;74.55;100168.38;5036465;28;20095;-71
2021/05/02 01:13:35;;;;;;;17.75;12.43;;;;;;;5.39;74.44;100175.00;5036399;28;20050;-70
2021/05/02 01:16:09;;;;;;;15.65;12.40;;;;;;;5.47;74.27;100178.22;5036351;28;20115;-71
2021/05/02 01:18:36;;;;;;;16.05;13.07;;;;;;;5.48;74.29;100168.47;5036029;28;20049;-71
2021/05/02 01:21:04;;;;;;;18.60;13.57;;;;;;;5.47;74.32;100174.69;5035990;28;20053;-71
2021/05/02 01:23:30;;;;;;;16.73;13.85;;;;;;;5.46;74.56;100173.84;5036341;28;20057;-71
2021/05/02 01:25:59;;;;;;;17.80;13.65;;;;;;;5.36;74.39;100149.53;5036281;28;20049;-71
2021/05/02 01:28:28;;;;;;;16.83;13.48;;;;;;;5.50;74.90;100177.22;5036263;28;20049;-70
2021/05/02 01:30:56;;;;;;;16.40;13.05;;;;;;;5.50;75.31;100174.59;5036226;28;20049;-71
2021/05/02 01:33:22;;;;;;;21.00;14.20;;;;;;;5.52;75.23;100172.72;5034720;28;20394;-70
2021/05/02 01:35:49;;;;;;;23.65;14.73;;;;;;;5.53;75.69;100185.03;5036035;28;20053;-70
2021/05/02 01:38:16;;;;;;;24.95;15.38;;;;;;;5.55;75.63;100177.88;5034716;28;20045;-70
2021/05/02 01:40:42;;;;;;;17.55;14.85;;;;;;;5.71;74.82;100178.13;5035825;28;20053;-71
2021/05/02 01:43:09;;;;;;;21.08;15.52;;;;;;;5.66;75.65;100186.28;5051160;28;20053;-70
2021/05/02 01:45:35;;;;;;;20.75;15.63;;;;;;;5.67;75.23;100181.84;5035841;28;20057;-70
2021/05/02 01:48:05;;;;;;;23.27;15.60;;;;;;;5.68;75.58;100176.47;5035443;28;20347;-70
2021/05/02 01:50:43;;;;;;;19.98;16.23;;;;;;;5.61;76.04;100182.94;5035383;28;20461;-70
2021/05/02 01:53:10;;;;;;;22.08;15.57;;;;;;;5.59;75.73;100168.91;5035443;28;20350;-70
2021/05/02 01:55:38;;;;;;;23.88;17.80;;;;;;;5.69;75.65;100174.69;5035589;28;20343;-71
2021/05/02 01:58:07;;;;;;;23.85;16.33;;;;;;;5.65;76.33;100181.91;5034318;28;20057;-71
2021/05/02 02:00:42;;;;;;;23.23;17.02;;;;;;;5.79;75.49;100185.78;5035953;28;20049;-72
2021/05/02 02:03:09;;;;;;;22.05;17.00;;;;;;;5.83;75.70;100174.16;5035492;28;20065;-71
2021/05/02 02:05:38;;;;;;;25.45;18.27;;;;;;;5.82;75.93;100175.91;5035507;28;20411;-71
2021/05/02 02:08:08;;;;;;;26.30;18.48;;;;;;;5.87;75.87;100183.66;5035649;28;20386;-71
2021/05/02 02:10:36;;;;;;;22.08;18.30;;;;;;;5.90;75.91;100178.25;5035418;28;20052;-71
2021/05/02 02:13:08;;;;;;;19.80;17.50;;;;;;;5.89;76.24;100176.50;5035384;28;20111;-71
2021/05/02 02:15:34;;;;;;;27.55;19.42;;;;;;;5.98;75.74;100177.94;5035199;28;20060;-71
2021/05/02 02:18:00;;;;;;;25.00;19.08;;;;;;;5.92;76.24;100180.81;5035122;28;20053;-71
2021/05/02 02:20:29;;;;;;;23.75;18.35;;;;;;;5.94;76.57;100187.78;5050698;28;20053;-71
2021/05/02 02:22:59;;;;;;;32.95;19.40;;;;;;;5.82;76.53;100181.22;5035435;28;20049;-72
2021/05/02 02:25:31;;;;;;;24.10;18.60;;;;;;;5.95;76.32;100191.31;5035652;28;20053;-71
2021/05/02 02:28:03;;;;;;;26.65;18.83;;;;;;;5.84;76.63;100189.94;5035558;28;20343;-72
2021/05/02 02:30:33;;;;;;;26.05;19.23;;;;;;;5.84;76.97;100189.94;5035474;28;20181;-71
2021/05/02 02:33:01;;;;;;;26.57;19.23;;;;;;;5.93;76.70;100198.44;5035486;28;20072;-72
2021/05/02 02:35:30;;;;;;;31.50;20.42;;;;;;;5.75;77.02;100190.34;5035461;28;20053;-71
2021/05/02 02:37:57;;;;;;;26.50;19.35;;;;;;;5.82;77.30;100201.53;5034620;28;20506;-71
2021/05/02 02:40:24;;;;;;;29.73;19.80;;;;;;;5.90;76.72;100206.53;5035502;28;20049;-71
2021/05/02 02:42:51;;;;;;;29.13;20.20;;;;;;;5.76;77.62;100207.94;5035910;28;20068;-71
2021/05/02 02:45:18;;;;;;;25.58;20.38;;;;;;;5.64;77.34;100204.00;5035231;28;20068;-71
2021/05/02 02:47:48;;;;;;;27.88;20.45;;;;;;;5.56;77.55;100204.31;5034930;28;20140;-72
2021/05/02 02:50:17;;;;;;;27.73;20.48;;;;;;;5.56;78.17;100211.41;5034915;28;20123;-70
2021/05/02 02:52:47;;;;;;;31.65;21.70;;;;;;;5.57;78.13;100216.63;5035168;28;20053;-70
2021/05/02 02:55:15;;;;;;;27.70;20.60;;;;;;;5.58;78.40;100214.84;5035216;28;20046;-71
2021/05/02 02:58:01;;;;;;;27.15;20.65;;;;;;;5.70;77.88;100218.78;5034981;28;20430;-71
2021/05/02 03:00:29;;;;;;;30.20;21.17;;;;;;;5.72;77.94;100216.94;5033861;28;20060;-71
2021/05/02 03:03:08;;;;;;;28.63;21.65;;;;;;;5.77;77.92;100222.06;5034897;28;20111;-71
2021/05/02 03:05:36;;;;;;;30.38;21.05;;;;;;;5.77;77.85;100216.78;5035052;28;20053;-71
2021/05/02 03:08:05;;;;;;;32.17;21.15;;;;;;;5.71;77.78;100205.50;5034788;28;20334;-71
2021/05/02 03:10:31;;;;;;;32.35;22.65;;;;;;;5.70;77.77;100198.47;5034880;28;20060;-71
2021/05/02 03:12:59;;;;;;;30.35;22.45;;;;;;;5.67;78.15;100208.31;5033849;28;20111;-71
2021/05/02 03:15:26;;;;;;;30.80;22.60;;;;;;;5.86;78.63;100224.34;5034025;28;20057;-71
2021/05/02 03:18:28;;;;;;;29.08;22.38;;;;;;;5.85;77.98;100223.47;5034542;28;20057;-71
2021/05/02 03:20:58;;;;;;;26.77;22.05;;;;;;;5.88;78.46;100230.41;5034397;28;20104;-71
2021/05/02 03:23:39;;;;;;;34.83;23.60;;;;;;;5.81;79.56;100227.19;5035083;28;20053;-71
2021/05/02 03:26:08;;;;;;;30.73;22.23;;;;;;;5.83;79.78;100225.31;5037246;28;20119;-71
2021/05/02 03:28:40;;;;;;;33.25;23.95;;;;;;;5.82;79.86;100234.19;5038195;28;20419;-71
2021/05/02 03:31:06;;;;;;;34.67;24.13;;;;;;;5.87;80.11;100233.16;5038013;28;20346;-71
2021/05/02 03:33:35;;;;;;;31.02;23.45;;;;;;;5.89;79.62;100228.66;5037263;28;20072;-71
2021/05/02 03:36:08;;;;;;;31.02;23.27;;;;;;;5.75;80.08;100232.72;5038398;28;20399;-71
2021/05/02 03:38:43;;;;;;;32.97;24.88;;;;;;;5.81;79.96;100227.19;5037895;28;20103;-71
2021/05/02 03:41:09;;;;;;;34.50;24.08;;;;;;;5.77;80.48;100230.84;5038138;28;20061;-71
2021/05/02 03:43:37;;;;;;;33.90;24.25;;;;;;;5.78;80.33;100232.56;5037094;28;20053;-71
2021/05/02 03:46:04;;;;;;;34.33;24.70;;;;;;;5.76;80.90;100242.38;5037969;28;20049;-72
2021/05/02 03:48:31;;;;;;;34.08;24.33;;;;;;;5.75;80.82;100245.97;5038171;28;20057;-71
2021/05/02 03:50:58;;;;;;;31.70;25.42;;;;;;;5.76;80.58;100245.03;5037825;28;20107;-71
2021/05/02 03:53:25;;;;;;;33.03;24.48;;;;;;;5.81;80.52;100253.66;5037694;28;20427;-71
2021/05/02 03:55:51;;;;;;;34.50;26.38;;;;;;;5.67;80.34;100245.41;5038058;28;20053;-70
2021/05/02 03:58:17;;;;;;;37.28;27.17;;;;;;;5.74;80.84;100260.13;5036440;28;20099;-70
2021/05/02 04:00:44;;;;;;;36.88;25.45;;;;;;;5.67;80.68;100250.69;5037805;28;20049;-71
2021/05/02 04:03:14;;;;;;;38.95;24.85;;;;;;;5.72;80.68;100259.31;5020491;28;20119;-71
2021/05/02 04:05:41;;;;;;;35.30;25.00;;;;;;;5.73;80.85;100261.06;5037784;28;20458;-71
2021/05/02 04:08:09;;;;;;;38.35;24.83;;;;;;;5.77;80.75;100261.78;5037830;28;20057;-71
2021/05/02 04:10:36;;;;;;;37.05;25.75;;;;;;;5.78;80.62;100271.47;5037806;28;20080;-71
2021/05/02 04:13:02;;;;;;;32.47;24.35;;;;;;;5.77;80.43;100272.38;5036494;28;20054;-70
2021/05/02 04:15:28;;;;;;;37.92;25.40;;;;;;;5.73;80.49;100276.94;5037680;28;20427;-71
2021/05/02 04:17:54;;;;;;;35.58;26.48;;;;;;;5.77;80.86;100273.22;5052725;28;20073;-71
2021/05/02 04:20:20;;;;;;;33.00;25.13;;;;;;;5.71;80.95;100274.34;5036032;28;20390;-70
2021/05/02 04:22:48;;;;;;;34.25;25.35;;;;;;;5.76;80.60;100279.47;5052629;28;20485;-70
2021/05/02 04:25:14;;;;;;;35.60;25.38;;;;;;;5.83;80.74;100286.25;5036991;28;20053;-71
2021/05/02 04:27:41;;;;;;;37.25;24.40;;;;;;;5.81;80.54;100284.56;5037221;28;20053;-70
2021/05/02 04:30:08;;;;;;;35.08;24.67;;;;;;;5.84;80.22;100289.75;5036994;28;20096;-71
2021/05/02 04:32:34;;;;;;;34.63;25.83;;;;;;;5.77;80.58;100289.13;5036834;28;20045;-71
2021/05/02 04:35:00;;;;;;;33.33;25.25;;;;;;;5.77;80.90;100297.06;5035272;28;20058;-71
2021/05/02 04:37:26;;;;;;;32.50;23.98;;;;;;;5.84;80.66;100300.38;5036422;28;20054;-71
2021/05/02 04:39:52;;;;;;;29.92;23.27;;;;;;;5.84;80.21;100295.06;5037146;28;20045;-72
2021/05/02 04:42:19;;;;;;;34.20;24.95;;;;;;;5.81;80.70;100311.94;5036668;28;20457;-71
2021/05/02 04:44:45;;;;;;;33.67;23.92;;;;;;;5.83;80.43;100307.44;5036861;28;20056;-71
2021/05/02 04:47:18;;;;;;;34.35;24.23;;;;;;;5.83;80.20;100304.78;5035905;28;20053;-71
2021/05/02 04:49:45;;;;;;;32.72;23.35;;;;;;;5.92;80.22;100315.94;5036598;28;20487;-72
2021/05/02 04:52:13;;;;;;;31.10;22.23;;;;;;;5.92;80.12;100323.88;5036401;28;20061;-72
2021/05/02 04:54:40;;;;;;;32.72;19.85;;;;;;;5.95;80.11;100326.44;5036836;28;20057;-72
2021/05/02 04:57:06;;;;;;;25.20;20.20;;;;;;;5.78;80.83;100333.22;5036881;28;20053;-71
2021/05/02 04:59:34;;;;;;;30.52;20.55;;;;;;;5.78;81.06;100342.97;5051631;28;20353;-71
2021/05/02 05:02:00;;;;;;;28.45;19.48;;;;;;;5.74;80.79;100328.09;5036560;28;20057;-71
2021/05/02 05:04:27;;;;;;;25.42;19.52;;;;;;;5.81;80.89;100348.13;5036322;28;20121;-72
2021/05/02 05:06:54;;;;;;;28.98;17.98;;;;;;;5.82;80.73;100350.75;5036239;28;20049;-71
2021/05/02 05:09:20;;;;;;;26.42;19.35;;;;;;;5.83;80.14;100347.16;5036435;28;20061;-71
2021/05/02 05:11:47;;;;;;;23.75;16.15;;;;;;;5.85;79.44;100350.59;5036164;28;20053;-71
2021/05/02 05:14:13;;;;;;;22.38;15.18;;;;;;;5.89;79.52;100361.09;5036098;28;20053;-71
2021/05/02 05:16:39;;;;;;;23.30;15.57;;;;;;;5.89;79.60;100361.09;5036290;28;20107;-70
2021/05/02 05:19:06;;;;;;;25.23;14.52;;;;;;;5.83;78.50;100365.72;5035958;28;20458;-71
2021/05/02 05:21:32;;;;;;;22.70;13.63;;;;;;;5.79;78.94;100361.47;5036361;28;20326;-71
2021/05/02 05:23:58;;;;;;;19.48;13.00;;;;;;;5.77;78.74;100352.69;5036052;28;20053;-70
2021/05/02 05:26:24;;;;;;;19.77;12.35;;;;;;;5.89;78.66;100363.75;5036144;28;20057;-70
2021/05/02 05:28:51;;;;;;;22.08;13.38;;;;;;;5.84;78.65;100364.78;5035794;28;20059;-70
2021/05/02 05:31:17;;;;;;;26.08;13.30;;;;;;;5.83;78.39;100373.66;5034833;28;20049;-71
2021/05/02 05:33:43;;;;;;;22.38;13.75;;;;;;;5.73;78.76;100377.59;5034724;28;20061;-71
2021/05/02 05:36:09;;;;;;;18.90;11.93;;;;;;;5.81;78.09;100375.50;5035646;28;20438;-70
2021/05/02 05:38:35;;;;;;;20.58;13.30;;;;;;;5.72;78.36;100381.13;5035844;28;20049;-71
2021/05/02 05:41:01;;;;;;;17.95;12.07;;;;;;;5.67;78.46;100376.00;5035695;28;20061;-71
2021/05/02 05:43:27;;;;;;;15.38;12.35;;;;;;;5.70;77.78;100378.56;5034447;28;20320;-71
2021/05/02 05:45:54;;;;;;;21.98;13.10;;;;;;;5.72;77.94;100389.06;5034672;28;20069;-71
2021/05/02 05:48:20;;;;;;;19.27;13.00;;;;;;;5.61;78.22;100384.19;5035269;28;20046;-71
2021/05/02 05:50:48;;;;;;;19.65;13.75;;;;;;;5.63;78.22;100386.78;5035465;28;20060;-71
2021/05/02 05:53:16;;;;;;;17.05;13.02;;;;;;;5.70;77.71;100391.81;5035330;28;20053;-71
2021/05/02 05:55:43;;;;;;;20.38;11.40;;;;;;;5.62;76.93;100399.13;5035466;28;20461;-72
2021/05/02 05:58:10;;;;;;;18.67;12.55;;;;;;;5.58;77.11;100400.19;5035632;28;20049;-70
2021/05/02 06:00:36;;;;;;;16.40;11.15;;;;;;;5.59;76.62;100407.22;5035613;28;20049;-70
2021/05/02 06:03:02;;;;;;;22.88;12.05;;;;;;;5.64;76.62;100407.03;5035557;28;20080;-70
2021/05/02 06:05:29;;;;;;;18.55;11.60;;;;;;;5.67;76.53;100396.34;5035296;28;20514;-71
2021/05/02 06:07:55;;;;;;;20.95;11.70;;;;;;;5.59;77.05;100401.91;5035339;28;20052;-70
2021/05/02 06:10:21;;;;;;;18.25;12.05;;;;;;;5.73;77.05;100409.38;5034557;28;20045;-70
2021/05/02 06:12:48;;;;;;;19.20;11.02;;;;;;;5.58;76.10;100401.03;5035730;28;20057;-70
2021/05/02 06:15:14;;;;;;;21.35;11.57;;;;;;;5.76;75.88;100419.84;5034107;28;20300;-70
2021/05/02 06:17:41;;;;;;;17.33;11.27;;;;;;;5.77;75.56;100408.31;5035153;28;20633;-70
2021/05/02 06:20:08;;;;;;;18.23;10.70;;;;;;;5.83;75.28;100408.09;5035291;28;20060;-70
2021/05/02 06:22:34;;;;;;;14.98;10.27;;;;;;;5.87;74.76;100411.47;5035339;28;20053;-70
2021/05/02 06:25:00;;;;;;;15.13;8.82;;;;;;;5.80;74.13;100418.81;5033971;28;20508;-71
2021/05/02 06:27:26;;;;;;;17.77;9.55;;;;;;;5.89;74.54;100414.09;5035085;28;20136;-71
2021/05/02 06:29:53;;;;;;;14.40;9.13;;;;;;;5.88;74.25;100417.66;5035107;28;20054;-70
2021/05/02 06:32:19;;;;;;;17.13;9.05;;;;;;;5.95;73.72;100424.47;5034108;28;20056;-70
2021/05/02 06:34:46;;;;;;;13.73;8.30;;;;;;;6.04;73.47;100433.88;5035475;28;20053;-70
2021/05/02 06:37:12;;;;;;;15.10;7.63;;;;;;;6.03;72.09;100430.34;5035009;28;20053;-70
2021/05/02 06:39:41;;;;;;;14.82;7.22;;;;;;;6.09;71.77;100431.91;5034892;28;20346;-71
2021/05/02 06:42:07;;;;;;;13.32;6.50;;;;;;;6.19;71.94;100435.06;5035148;28;20053;-70
2021/05/02 06:44:33;;;;;;;9.13;6.40;;;;;;;6.31;70.71;100429.28;5035016;28;20053;-71
2021/05/02 06:46:59;;;;;;;14.80;6.45;;;;;;;6.29;70.52;100417.91;5034081;28;20138;-71
2021/05/02 06:49:29;;;;;;;16.95;6.88;;;;;;;6.21;70.43;100426.13;5033955;28;20111;-71
2021/05/02 06:51:55;;;;;;;10.35;5.93;;;;;;;6.35;70.16;100435.34;5033741;28;20717;-70
2021/05/02 06:54:21;;;;;;;12.13;5.50;;;;;;;6.39;69.16;100434.31;5033722;28;20072;-72
2021/05/02 06:56:47;;;;;;;8.70;4.97;;;;;;;6.40;68.61;100422.78;5035085;28;20049;-70
2021/05/02 06:59:13;;;;;;;9.55;4.80;;;;;;;6.52;68.21;100434.66;5036121;28;20056;-71
2021/05/02 07:01:39;;;;;;;11.57;4.30;;;;;;;6.55;67.54;100434.56;5037690;28;20057;-71
2021/05/02 07:04:05;;;;;;;8.98;4.80;;;;;;;6.58;67.62;100429.13;5038466;28;20049;-70
2021/05/02 07:06:33;;;;;;;10.50;4.15;;;;;;;6.68;66.49;100436.69;5037733;28;20060;-70
2021/05/02 07:09:01;;;;;;;6.95;4.30;;;;;;;6.70;66.53;100437.53;5038638;28;20056;-70
2021/05/02 07:11:27;;;;;;;8.95;4.10;;;;;;;6.82;64.86;100445.00;5037338;28;20127;-71
2021/05/02 07:13:53;;;;;;;11.07;3.58;;;;;;;6.91;64.76;100441.94;5038483;28;20049;-69
2021/05/02 07:16:21;;;;;;;11.40;4.60;;;;;;;6.96;65.14;100448.88;5037501;28;20053;-72
2021/05/02 07:18:50;;;;;;;8.30;4.50;;;;;;;7.06;65.43;100451.06;5038113;28;20123;-69
2021/05/02 07:21:18;;;;;;;10.60;4.72;;;;;;;7.14;64.24;100448.06;5038712;28;20053;-69
2021/05/02 07:23:48;;;;;;;8.13;4.13;;;;;;;7.10;64.72;100451.81;5038573;28;20123;-73
2021/05/02 07:26:17;;;;;;;9.27;4.97;;;;;;;7.10;64.31;100438.53;5029205;28;20045;-71
2021/05/02 07:28:43;;;;;;;13.73;4.50;;;;;;;6.97;64.51;100451.44;5038127;28;20104;-80
2021/05/02 07:31:13;;;;;;;13.27;4.15;;;;;;;7.09;64.65;100455.41;5037041;28;20047;-74
2021/05/02 07:33:40;;;;;;;10.27;3.78;;;;;;;7.12;63.86;100443.75;5038246;28;20045;-74
2021/05/02 07:36:07;;;;;;;7.10;3.10;;;;;;;7.38;63.08;100458.59;5038322;28;20053;-71
2021/05/02 07:38:34;;;;;;;10.77;2.58;;;;;;;7.64;62.20;100455.72;5038449;28;20037;-76
2021/05/02 07:41:01;;;;;;;7.05;2.70;;;;;;;7.78;61.03;100463.09;5032522;28;20045;-70
2021/05/02 07:43:28;;;;;;;4.40;2.72;;;;;;;7.80;60.37;100462.06;5037991;28;20053;-75
2021/05/02 07:45:54;;;;;;;9.68;2.95;;;;;;;7.84;60.50;100461.03;5037869;28;20072;-73
2021/05/02 07:48:20;;;;;;;6.32;3.03;;;;;;;8.00;60.49;100458.53;5032684;28;20063;-70
2021/05/02 07:50:47;;;;;;;12.48;3.10;;;;;;;8.05;60.34;100457.47;5037343;28;20346;-75
2021/05/02 07:53:16;;;;;;;10.13;2.95;;;;;;;8.07;59.65;100461.75;5019936;28;20049;-74
2021/05/02 07:55:42;;;;;;;8.43;3.60;;;;;;;7.84;60.15;100469.00;5027077;28;20050;-72
2021/05/02 07:58:08;;;;;;;9.02;3.70;;;;;;;7.58;60.87;100468.34;5027592;28;20046;-72
2021/05/02 08:00:35;;;;;;;8.35;3.53;;;;;;;7.47;60.81;100462.66;5027852;28;20053;-75
2021/05/02 08:03:01;;;;;;;9.68;5.30;;;;;;;7.26;61.92;100473.28;5034545;28;20426;-73
2021/05/02 08:05:29;;;;;;;12.13;3.45;;;;;;;7.34;61.12;100471.16;5037735;28;20053;-76
2021/05/02 08:07:56;;;;;;;8.98;3.20;;;;;;;7.34;60.66;100476.47;5037424;28;20049;-70
2021/05/02 08:10:23;;;;;;;7.25;3.05;;;;;;;7.20;61.10;100466.41;5035843;28;20056;-70
2021/05/02 08:12:55;;;;;;;6.30;3.65;;;;;;;7.09;61.14;100468.66;5035164;28;20056;-70
2021/05/02 08:15:22;;;;;;;8.35;3.17;;;;;;;7.13;59.97;100480.88;5028632;28;20347;-76
2021/05/02 08:17:48;;;;;;;8.32;3.20;;;;;;;7.27;60.49;100475.00;5009575;28;20057;-70
2021/05/02 08:20:15;;;;;;;8.82;3.42;;;;;;;7.47;60.88;100475.94;5028122;28;20046;-74
2021/05/02 08:22:41;;;;;;;7.38;3.10;;;;;;;7.58;57.09;100473.66;5034374;28;20046;-69
2021/05/02 08:25:08;;;;;;;9.18;2.88;;;;;;;7.78;57.17;100468.41;5035945;28;20049;-69
2021/05/02 08:27:34;;;;;;;9.38;3.20;;;;;;;7.92;58.09;100471.31;5037001;28;20045;-72
2021/05/02 08:30:04;;;;;;;6.55;2.85;;;;;;;8.17;57.67;100464.03;5031266;28;20073;-71
2021/05/02 08:32:31;;;;;;;7.17;3.07;;;;;;;8.35;58.02;100472.94;5037018;28;20083;-75
2021/05/02 08:34:58;;;;;;;7.38;2.55;;;;;;;8.13;53.12;100479.25;5034968;28;20045;-73
2021/05/02 08:37:24;;;;;;;12.45;3.63;;;;;;;7.91;55.31;100480.22;5046480;28;20045;-72
2021/05/02 08:39:50;;;;;;;6.75;2.30;;;;;;;8.09;55.24;100482.97;5035365;28;20421;-73
2021/05/02 08:42:16;;;;;;;7.07;3.08;;;;;;;8.37;54.98;100479.03;5036913;28;20053;-75
2021/05/02 08:44:43;;;;;;;4.85;2.60;;;;;;;8.65;54.30;100477.75;5046763;28;20072;-76
2021/05/02 08:47:14;;;;;;;5.35;3.05;;;;;;;8.91;54.92;100467.66;5019954;28;20081;-75
2021/05/02 08:49:42;;;;;;;6.07;2.83;;;;;;;8.91;54.61;100468.53;5035536;28;20045;-73
2021/05/02 08:52:09;;;;;;;8.15;2.70;;;;;;;8.92;52.84;100466.72;5036328;28;20274;-75
2021/05/02 08:54:36;;;;;;;4.35;2.65;;;;;;;9.10;52.93;100476.47;5035348;28;20423;-75
2021/05/02 08:57:03;;;;;;;6.90;2.30;;;;;;;8.94;50.91;100467.53;5035161;28;20061;-75
2021/05/02 08:59:29;;;;;;;10.60;2.67;;;;;;;9.10;51.55;100481.78;5036056;28;20422;-78
2021/05/02 09:01:58;;;;;;;7.10;2.45;;;;;;;8.92;50.32;100485.34;5051715;28;20104;-74
2021/05/02 09:04:25;;;;;;;7.25;2.65;;;;;;;8.86;51.10;100469.66;5036330;28;20084;-74
2021/05/02 09:06:52;;;;;;;6.80;2.83;;;;;;;9.21;51.98;100480.41;5036421;28;20056;-73
2021/05/02 09:09:19;;;;;;;8.27;2.70;;;;;;;9.32;53.28;100487.84;5036095;28;20045;-71
2021/05/02 09:11:47;;;;;;;10.32;3.53;;;;;;;9.19;53.55;100482.25;5035805;28;20427;-74
2021/05/02 09:14:19;;;;;;;7.38;2.92;;;;;;;9.26;52.75;100489.00;5035782;28;20045;-72
2021/05/02 09:16:54;;;;;;;9.05;2.92;;;;;;;8.94;53.24;100486.16;5032580;28;20143;-70
2021/05/02 09:19:23;;;;;;;4.82;2.40;;;;;;;8.89;52.07;100478.38;5035723;28;20053;-71
2021/05/02 09:21:54;;;;;;;5.63;2.70;;;;;;;8.95;52.23;100487.88;5035061;28;20103;-72
2021/05/02 09:24:32;;;;;;;6.82;2.67;;;;;;;9.16;52.22;100480.59;5032353;28;20128;-71
2021/05/02 09:27:07;;;;;;;11.02;5.18;;;;;;;9.26;52.56;100481.00;5034890;28;20057;-76
2021/05/02 09:29:35;;;;;;;13.25;3.38;;;;;;;9.13;52.38;100490.53;5036521;28;20072;-70
2021/05/02 09:32:04;;;;;;;8.82;3.08;;;;;;;9.05;53.40;100491.78;5031018;28;20049;-73
2021/05/02 09:34:31;;;;;;;5.03;2.83;;;;;;;8.79;53.55;100490.41;5036169;28;20049;-72
2021/05/02 09:37:03;;;;;;;9.73;3.10;;;;;;;8.92;52.75;100490.66;5035972;28;20068;-79
2021/05/02 09:39:38;;;;;;;5.68;2.63;;;;;;;9.16;52.97;100490.41;5046172;28;20049;-72
2021/05/02 09:42:15;;;;;;;8.18;3.00;;;;;;;9.46;49.95;100503.09;5025406;28;20057;-73
2021/05/02 09:44:45;;;;;;;6.82;2.42;;;;;;;9.53;49.65;100493.84;5028209;28;20052;-74
2021/05/02 09:47:22;;;;;;;;;;;;;;;9.65;49.00;100498.56;5046825;28;20068;-76
2021/05/02 09:50:10;;;;;;;5.90;2.42;;;;;;;9.80;49.45;100492.53;5044702;28;19921;-74
2021/05/02 09:52:46;;;;;;;7.60;2.55;;;;;;;10.02;48.53;100495.75;5034609;28;20111;-74
2021/05/02 09:55:24;;;;;;;8.55;2.38;;;;;;;9.97;48.28;100492.47;5035340;28;20053;-74
2021/05/02 09:58:21;;;;;;;9.45;2.25;;;;;;;10.13;48.80;100500.53;5033937;28;20211;-73
2021/05/02 10:00:50;;;;;;;6.55;2.38;;;;;;;10.30;47.25;100493.44;5030680;28;20049;-71
2021/05/02 10:03:20;;;;;;;6.80;2.83;;;;;;;10.49;47.64;100492.44;5035015;28;20061;-71
2021/05/02 10:05:59;;;;;;;7.40;2.47;;;;;;;10.45;47.48;100489.94;5034792;28;20611;-75
2021/05/02 10:08:28;;;;;;;6.38;2.10;;;;;;;10.44;46.96;100490.88;5033012;28;20052;-73
2021/05/02 10:10:57;;;;;;;6.40;2.70;;;;;;;10.34;47.30;100497.63;5035063;28;20057;-77
2021/05/02 10:13:23;;;;;;;8.55;2.30;;;;;;;9.81;46.69;100508.41;5029557;28;20049;-77
2021/05/02 10:15:50;;;;;;;7.40;2.25;;;;;;;9.59;48.42;100501.53;5034449;28;20426;-76
2021/05/02 10:18:17;;;;;;;6.57;2.30;;;;;;;9.64;48.44;100507.50;5033694;28;20442;-75
2021/05/02 10:20:45;;;;;;;8.13;2.53;;;;;;;9.57;48.34;100499.88;5029421;28;20136;-76
2021/05/02 10:23:14;;;;;;;8.35;2.58;;;;;;;9.58;48.64;100489.16;5035267;28;20136;-73
2021/05/02 10:25:43;;;;;;;4.47;2.20;;;;;;;9.85;48.74;100510.00;5034147;28;20049;-72
2021/05/02 10:28:18;;;;;;;11.07;2.35;;;;;;;9.71;49.19;100507.19;5035133;28;20052;-75
2021/05/02 10:30:49;;;;;;;5.13;2.40;;;;;;;9.60;48.79;100500.59;5023468;28;20049;-74
2021/05/02 10:33:29;;;;;;;5.18;2.10;;;;;;;9.71;49.68;100513.41;5027015;28;20045;-76
2021/05/02 10:35:59;;;;;;;6.30;2.33;;;;;;;9.96;48.70;100500.59;5037943;28;20049;-75
2021/05/02 10:38:47;;;;;;;7.75;2.67;;;;;;;10.42;48.55;100511.44;5028123;28;20434;-76
2021/05/02 10:41:36;;;;;;;8.02;2.42;;;;;;;10.88;47.20;100498.31;5034874;28;20053;-75
2021/05/02 10:44:11;;;;;;;8.95;2.50;;;;;;;11.00;46.06;100498.44;5038780;28;20084;-75
2021/05/02 10:46:44;;;;;;;6.82;2.20;;;;;;;10.97;45.50;100498.66;5038985;28;20065;-77
2021/05/02 10:49:23;;;;;;;8.65;2.25;;;;;;;10.68;44.43;100502.97;5037885;28;20045;-73
2021/05/02 10:51:56;;;;;;;3.27;1.63;;;;;;;10.69;45.80;100496.66;5046414;28;20053;-75
2021/05/02 10:54:46;;;;;;;7.65;2.22;;;;;;;10.31;46.04;100497.81;5038476;28;20369;-72
2021/05/02 10:57:34;;;;;;;4.38;2.20;;;;;;;10.32;46.14;100480.84;5037612;28;20107;-71
2021/05/02 11:00:05;;;;;;;6.68;2.53;;;;;;;10.64;45.97;100502.28;5038384;28;20426;-70
2021/05/02 11:02:46;;;;;;;3.28;2.17;;;;;;;10.53;45.46;100496.66;5038495;28;20053;-72
2021/05/02 11:05:13;;;;;;;;;;;;;;;10.64;45.76;100512.94;5033573;28;20056;-77
2021/05/02 11:07:43;;;;;;;4.03;2.10;;;;;;;10.59;45.13;100499.00;5039060;28;19925;-78
2021/05/02 11:10:15;;;;;;;8.40;2.25;;;;;;;10.84;44.89;100501.13;5038924;28;20091;-76
2021/05/02 11:12:43;;;;;;;9.57;2.22;;;;;;;10.82;44.26;100497.69;5038620;28;20123;-75
2021/05/02 11:15:31;;;;;;;5.13;2.15;;;;;;;10.66;43.88;100513.72;5038069;28;20137;-72
2021/05/02 11:17:58;;;;;;;10.43;2.20;;;;;;;10.56;43.54;100507.16;5037269;28;20062;-74
2021/05/02 11:20:50;;;;;;;7.00;2.08;;;;;;;10.23;44.54;100511.56;5053350;28;20774;-74
2021/05/02 11:23:17;;;;;;;4.32;1.77;;;;;;;10.12;44.82;100511.25;5043347;28;20427;-73
2021/05/02 11:25:55;;;;;;;5.50;2.28;;;;;;;10.13;45.63;100519.19;5026017;28;20058;-74
2021/05/02 11:28:45;;;;;;;3.80;1.83;;;;;;;10.04;46.08;100520.53;5031263;28;20790;-74
2021/05/02 11:31:12;;;;;;;3.70;2.13;;;;;;;10.08;46.48;100520.41;5036322;28;20045;-73
2021/05/02 11:33:39;;;;;;;6.25;2.38;;;;;;;10.01;46.14;100531.38;5038151;28;20056;-72